Time;durP1;ratioP1;P1;durP2;ratioP2;P2;SDS_P1;SDS_P2;PMS_P1;PMS_P2;Temp;Humidity;BMP_temperature;BMP_pressure;BME280_temperature;BME280_humidity;BME280_pressure;Samples;Min_cycle;Max_cycle;Signal;HPM_P1;HPM_P2
2022/06/25 00:00:29;;;;;;;8.45;7.40;;;20.40;99.90;;;;;;5089687;28;20020;-48
2022/06/25 00:02:54;;;;;;;10.73;8.13;;;20.30;99.90;;;;;;5093986;28;20085;-51
2022/06/25 00:05:29;;;;;;;9.63;8.75;;;20.30;99.90;;;;;;5088316;28;20081;-45
2022/06/25 00:07:56;;;;;;;10.93;8.43;;;20.30;99.90;;;;;;5083967;28;20081;-47
2022/06/25 00:10:22;;;;;;;8.88;7.95;;;20.30;99.90;;;;;;5092156;28;20024;-44
2022/06/25 00:12:47;;;;;;;9.15;8.25;;;20.20;99.90;;;;;;5108865;28;20484;-49
2022/06/25 00:15:13;;;;;;;9.25;8.35;;;20.20;99.90;;;;;;5111911;28;20061;-44
2022/06/25 00:17:38;;;;;;;10.02;8.50;;;20.20;99.90;;;;;;5095330;28;20078;-49
2022/06/25 00:20:05;;;;;;;10.68;8.90;;;20.20;99.90;;;;;;5111945;28;20493;-45
2022/06/25 00:22:31;;;;;;;11.85;9.55;;;20.20;99.90;;;;;;5094225;28;20497;-44
2022/06/25 00:24:57;;;;;;;10.45;8.75;;;20.20;99.90;;;;;;5111465;28;20107;-46
2022/06/25 00:27:22;;;;;;;10.13;9.13;;;20.20;99.90;;;;;;5104116;28;20059;-46
2022/06/25 00:29:48;;;;;;;10.57;9.43;;;20.10;99.90;;;;;;5111539;28;20071;-44
2022/06/25 00:32:14;;;;;;;9.82;8.77;;;20.20;99.90;;;;;;5091790;28;20511;-46
2022/06/25 00:34:40;;;;;;;10.77;9.52;;;20.10;99.90;;;;;;5111257;28;20028;-47
2022/06/25 00:37:07;;;;;;;12.95;9.63;;;20.10;99.90;;;;;;5090059;28;20107;-45
2022/06/25 00:39:33;;;;;;;9.60;8.70;;;20.10;99.90;;;;;;5111359;28;20024;-45
2022/06/25 00:41:59;;;;;;;10.68;9.55;;;20.10;99.90;;;;;;5091312;28;20519;-46
2022/06/25 00:44:25;;;;;;;11.88;10.65;;;20.10;99.90;;;;;;5109136;28;20107;-47
2022/06/25 00:46:51;;;;;;;14.25;10.75;;;20.10;99.90;;;;;;5091036;28;20062;-47
2022/06/25 00:49:16;;;;;;;12.48;11.18;;;20.10;99.90;;;;;;5070902;28;20032;-48
2022/06/25 00:51:46;;;;;;;12.70;10.93;;;20.00;99.90;;;;;;5109811;28;20035;-46
2022/06/25 00:54:13;;;;;;;12.15;10.93;;;20.00;99.90;;;;;;5070623;28;20040;-46
2022/06/25 00:56:46;;;;;;;13.30;11.85;;;20.00;99.90;;;;;;5109984;28;20126;-48
2022/06/25 00:59:12;;;;;;;13.90;12.48;;;19.90;99.90;;;;;;5069398;28;20531;-47
2022/06/25 01:01:38;;;;;;;14.10;12.70;;;19.90;99.90;;;;;;5091936;28;20035;-46
2022/06/25 01:04:04;;;;;;;15.98;14.05;;;19.90;99.90;;;;;;5074955;28;20030;-47
2022/06/25 01:06:29;;;;;;;17.85;16.00;;;19.90;99.90;;;;;;5109598;28;20028;-45
2022/06/25 01:08:57;;;;;;;18.70;16.75;;;19.90;99.90;;;;;;5073686;28;20130;-50
2022/06/25 01:11:23;;;;;;;15.93;14.32;;;19.80;99.90;;;;;;5110024;28;20510;-48
2022/06/25 01:13:48;;;;;;;18.85;15.35;;;19.80;99.90;;;;;;5074884;28;20543;-46
2022/06/25 01:16:14;;;;;;;17.50;15.23;;;19.80;99.90;;;;;;5109068;28;20137;-46
2022/06/25 01:18:39;;;;;;;17.50;15.63;;;19.80;99.90;;;;;;5074223;28;20036;-47
2022/06/25 01:21:05;;;;;;;22.38;16.27;;;19.80;99.90;;;;;;5108808;28;20483;-48
2022/06/25 01:23:30;;;;;;;17.42;15.60;;;19.80;99.90;;;;;;5077611;28;20071;-48
2022/06/25 01:25:57;;;;;;;17.75;15.95;;;19.80;99.90;;;;;;5106254;28;20023;-48
2022/06/25 01:28:22;;;;;;;20.73;18.48;;;19.80;99.90;;;;;;5107595;28;20056;-47
2022/06/25 01:30:47;;;;;;;19.60;17.38;;;19.70;99.90;;;;;;5090643;28;20036;-50
2022/06/25 01:33:13;;;;;;;18.83;16.48;;;19.70;99.90;;;;;;5107139;28;20077;-49
2022/06/25 01:35:38;;;;;;;19.33;16.65;;;19.60;99.90;;;;;;5090544;28;20032;-45
2022/06/25 01:38:04;;;;;;;19.67;17.58;;;19.70;99.90;;;;;;5107290;28;20019;-45
2022/06/25 01:40:31;;;;;;;20.50;17.38;;;19.60;99.90;;;;;;5110131;28;20019;-45
2022/06/25 01:43:00;;;;;;;22.88;19.63;;;19.60;99.90;;;;;;5094030;28;20061;-48
2022/06/25 01:45:28;;;;;;;21.20;17.92;;;19.60;99.90;;;;;;5110027;28;20012;-45
2022/06/25 01:47:54;;;;;;;17.45;15.65;;;19.60;99.90;;;;;;5093348;28;20479;-44
2022/06/25 01:50:20;;;;;;;19.45;17.35;;;19.60;99.90;;;;;;5110000;28;20062;-46
2022/06/25 01:52:46;;;;;;;17.55;15.68;;;19.60;99.90;;;;;;5092280;28;20055;-60
2022/06/25 01:55:13;;;;;;;18.92;16.92;;;19.50;99.90;;;;;;5110124;28;20019;-60
2022/06/25 01:57:38;;;;;;;17.50;15.70;;;19.50;99.90;;;;;;5090803;28;20541;-60
2022/06/25 02:00:10;;;;;;;18.70;16.73;;;19.40;99.90;;;;;;5097828;28;20052;-60
2022/06/25 02:02:37;;;;;;;19.73;16.60;;;19.40;99.90;;;;;;5072330;28;20039;-60
2022/06/25 02:05:04;;;;;;;17.23;15.48;;;19.40;99.90;;;;;;5109831;27;20479;-60
2022/06/25 02:07:29;;;;;;;22.73;17.08;;;19.40;99.90;;;;;;5089152;28;20024;-60
2022/06/25 02:09:55;;;;;;;16.83;15.02;;;19.30;99.90;;;;;;5109816;28;20068;-60
2022/06/25 02:12:20;;;;;;;18.73;15.73;;;19.20;99.90;;;;;;5087804;28;20042;-58
2022/06/25 02:14:46;;;;;;;17.25;15.45;;;19.20;99.90;;;;;;5109774;28;20020;-60
2022/06/25 02:17:11;;;;;;;15.80;14.18;;;19.20;99.90;;;;;;5089514;28;20628;-60
2022/06/25 02:19:37;;;;;;;18.67;16.48;;;19.20;99.90;;;;;;5083904;28;20036;-60
2022/06/25 02:22:03;;;;;;;16.52;14.82;;;19.20;99.90;;;;;;5108659;28;20027;-60
2022/06/25 02:24:28;;;;;;;17.52;15.57;;;19.10;99.90;;;;;;5069973;28;20514;-59
2022/06/25 02:26:54;;;;;;;17.08;14.85;;;19.10;99.90;;;;;;5097365;28;20127;-60
2022/06/25 02:29:19;;;;;;;15.02;13.43;;;19.00;99.90;;;;;;5073451;28;20496;-60
2022/06/25 02:31:45;;;;;;;15.48;13.75;;;19.00;99.90;;;;;;5107997;28;20040;-60
2022/06/25 02:34:10;;;;;;;15.73;14.18;;;19.00;99.90;;;;;;5072333;28;20054;-60
2022/06/25 02:36:36;;;;;;;15.65;13.40;;;19.00;99.90;;;;;;5107880;28;20072;-60
2022/06/25 02:39:01;;;;;;;15.13;13.35;;;18.90;99.90;;;;;;5073715;28;20543;-60
2022/06/25 02:41:27;;;;;;;15.10;13.50;;;18.90;99.90;;;;;;5108335;28;20076;-60
2022/06/25 02:43:52;;;;;;;16.80;15.00;;;18.90;99.90;;;;;;5075099;28;20032;-60
2022/06/25 02:46:18;;;;;;;21.25;15.35;;;18.90;99.90;;;;;;5107470;28;20071;-59
2022/06/25 02:48:43;;;;;;;15.10;12.70;;;18.90;99.90;;;;;;5097751;28;20564;-60
2022/06/25 02:51:09;;;;;;;15.52;13.90;;;18.90;99.90;;;;;;5089008;28;20029;-60
2022/06/25 02:53:34;;;;;;;13.52;12.23;;;18.80;99.90;;;;;;5105956;28;20031;-60
2022/06/25 02:58:55;;;;;;;14.05;12.55;;;18.80;99.90;;;;;;5089196;28;20061;-60
2022/06/25 03:01:26;;;;;;;15.10;13.55;;;18.80;99.90;;;;;;5073316;28;20028;-60
2022/06/25 03:03:52;;;;;;;16.92;14.38;;;18.90;99.90;;;;;;5089475;28;20547;-60
2022/06/25 03:06:18;;;;;;;15.88;13.95;;;18.90;99.90;;;;;;5088706;28;20056;-59
2022/06/25 03:08:44;;;;;;;13.85;12.55;;;18.90;99.90;;;;;;5105639;28;20071;-59
2022/06/25 03:11:10;;;;;;;12.80;11.50;;;18.90;99.90;;;;;;5088938;28;20523;-60
2022/06/25 03:13:36;;;;;;;17.38;14.80;;;18.90;99.90;;;;;;5105626;28;20035;-60
2022/06/25 03:16:03;;;;;;;13.95;12.45;;;18.90;99.90;;;;;;5088845;28;20288;-60
2022/06/25 03:18:29;;;;;;;15.43;13.82;;;18.90;99.90;;;;;;5104644;28;20434;-59
2022/06/25 03:20:54;;;;;;;15.07;13.45;;;19.00;99.90;;;;;;5088669;28;20119;-59
2022/06/25 03:23:20;;;;;;;13.73;12.32;;;19.00;99.90;;;;;;5105855;28;20024;-60
2022/06/25 03:25:46;;;;;;;13.18;11.88;;;19.00;99.90;;;;;;5107232;28;20438;-60
2022/06/25 03:28:12;;;;;;;17.30;12.27;;;19.10;99.90;;;;;;5093512;28;20051;-60
2022/06/25 03:30:37;;;;;;;14.10;12.02;;;19.10;99.90;;;;;;5067901;28;20418;-59
2022/06/25 03:33:03;;;;;;;13.82;12.35;;;19.10;99.90;;;;;;5104878;28;20451;-60
2022/06/25 03:35:29;;;;;;;14.20;12.80;;;19.20;99.90;;;;;;5108543;28;20024;-59
2022/06/25 03:37:55;;;;;;;13.20;11.65;;;19.20;99.90;;;;;;5088951;28;20028;-60
2022/06/25 03:40:20;;;;;;;14.63;13.02;;;19.30;99.90;;;;;;5108421;28;20031;-59
2022/06/25 03:42:46;;;;;;;13.57;12.18;;;19.30;99.90;;;;;;5089047;28;20028;-60
2022/06/25 03:45:11;;;;;;;13.27;11.88;;;19.30;99.90;;;;;;5112647;28;20020;-60
2022/06/25 03:47:37;;;;;;;15.35;12.05;;;19.40;99.90;;;;;;5092451;28;20492;-60
2022/06/25 03:50:03;;;;;;;12.40;10.60;;;19.50;99.90;;;;;;5110051;28;20019;-60
2022/06/25 03:52:29;;;;;;;15.52;11.57;;;19.60;99.90;;;;;;5092579;28;20400;-60
2022/06/25 03:54:54;;;;;;;12.82;11.52;;;19.60;99.90;;;;;;5071716;28;20033;-60
2022/06/25 03:57:20;;;;;;;11.15;10.05;;;19.80;99.90;;;;;;5110884;28;20093;-59
2022/06/25 03:59:46;;;;;;;12.70;11.40;;;20.00;99.90;;;;;;5075496;28;20042;-61
2022/06/25 04:02:11;;;;;;;13.82;11.20;;;20.70;99.90;;;;;;5092362;28;20093;-60
2022/06/25 04:04:37;;;;;;;12.88;10.85;;;21.00;99.90;;;;;;5077007;28;20054;-60
2022/06/25 04:07:02;;;;;;;12.43;11.20;;;21.10;99.90;;;;;;5110648;28;20024;-60
2022/06/25 04:09:28;;;;;;;10.63;9.52;;;21.30;99.90;;;;;;5073675;28;20057;-60
2022/06/25 04:11:53;;;;;;;10.82;9.82;;;21.40;99.90;;;;;;5088972;28;20052;-59
2022/06/25 04:14:19;;;;;;;10.43;9.43;;;21.80;99.90;;;;;;5080389;28;20041;-59
2022/06/25 04:16:44;;;;;;;11.68;10.38;;;21.90;99.90;;;;;;5110525;28;20040;-59
2022/06/25 04:19:10;;;;;;;13.48;10.05;;;22.00;99.90;;;;;;5078523;28;20040;-60
2022/06/25 04:21:35;;;;;;;10.15;8.85;;;22.10;99.90;;;;;;5105687;28;20071;-60
2022/06/25 04:24:01;;;;;;;9.30;8.27;;;22.20;99.90;;;;;;5099701;28;20024;-60
2022/06/25 04:26:26;;;;;;;11.50;8.30;;;22.70;99.90;;;;;;5078011;28;20048;-59
2022/06/25 04:29:04;;;;;;;8.32;7.43;;;22.90;99.90;;;;;;5098202;28;20128;-60
2022/06/25 04:31:31;;;;;;;10.38;9.20;;;22.80;99.90;;;;;;5071172;28;20047;-60
2022/06/25 04:33:58;;;;;;;10.75;8.88;;;22.60;99.90;;;;;;5108549;28;20042;-60
2022/06/25 04:36:23;;;;;;;10.63;8.88;;;22.50;99.90;;;;;;5091243;28;20051;-60
2022/06/25 04:38:49;;;;;;;9.77;8.77;;;22.40;99.90;;;;;;5108347;28;20047;-60
2022/06/25 04:41:15;;;;;;;10.65;9.55;;;22.40;99.90;;;;;;5091686;28;20024;-59
2022/06/25 04:43:41;;;;;;;9.45;8.52;;;22.40;99.90;;;;;;5108540;28;20093;-61
2022/06/25 04:46:06;;;;;;;10.43;8.77;;;22.40;99.90;;;;;;5111572;28;20107;-60
2022/06/25 04:48:32;;;;;;;9.07;8.18;;;22.50;99.90;;;;;;5095187;28;20491;-60
2022/06/25 04:50:57;;;;;;;9.85;8.85;;;22.70;99.90;;;;;;5111382;28;20051;-61
2022/06/25 04:53:23;;;;;;;8.70;7.85;;;22.80;99.90;;;;;;5087244;28;20028;-60
2022/06/25 04:55:48;;;;;;;9.13;8.23;;;22.90;99.90;;;;;;5076512;28;20111;-60
2022/06/25 04:58:14;;;;;;;8.95;8.13;;;22.90;99.90;;;;;;5081661;28;20490;-58
2022/06/25 05:00:40;;;;;;;10.40;8.75;;;22.80;99.90;;;;;;5083732;28;20036;-60
2022/06/25 05:03:06;;;;;;;12.52;9.15;;;22.80;99.90;;;;;;5082738;28;20036;-60
2022/06/25 05:05:32;;;;;;;8.25;7.40;;;22.80;99.90;;;;;;5067655;28;20034;-60
2022/06/25 05:07:57;;;;;;;8.55;7.80;;;22.90;99.90;;;;;;5078382;28;20111;-59
2022/06/25 05:10:23;;;;;;;8.35;7.18;;;22.90;99.90;;;;;;5068399;28;20112;-60
2022/06/25 05:15:33;;;;;;;9.05;8.15;;;22.90;99.90;;;;;;5067959;28;20074;-61
2022/06/25 05:17:59;;;;;;;8.57;7.78;;;23.00;99.90;;;;;;5074717;28;20062;-59
2022/06/25 05:20:24;;;;;;;9.50;8.38;;;23.10;99.90;;;;;;5091440;28;20442;-60
2022/06/25 05:22:51;;;;;;;9.43;7.60;;;23.20;99.90;;;;;;5076008;28;20470;-60
2022/06/25 05:25:16;;;;;;;9.68;6.97;;;23.30;99.90;;;;;;5066358;28;20044;-60
2022/06/25 05:27:42;;;;;;;8.32;7.63;;;23.40;99.90;;;;;;5076368;28;20047;-61
2022/06/25 05:30:08;;;;;;;7.90;7.10;;;23.40;99.90;;;;;;5065468;28;20143;-60
2022/06/25 05:32:34;;;;;;;9.40;8.50;;;23.40;99.90;;;;;;5076246;28;20039;-60
2022/06/25 05:34:59;;;;;;;8.80;7.93;;;23.50;99.90;;;;;;5071216;28;20507;-60
2022/06/25 05:37:25;;;;;;;10.55;8.10;;;23.40;99.90;;;;;;5075338;28;20051;-60
2022/06/25 05:39:51;;;;;;;10.10;9.13;;;23.40;99.90;;;;;;5073805;28;20037;-61
2022/06/25 05:42:17;;;;;;;10.40;8.43;;;23.40;99.90;;;;;;5075578;28;20732;-60
2022/06/25 05:44:43;;;;;;;9.50;8.57;;;23.30;99.90;;;;;;5076568;28;20064;-60
2022/06/25 05:47:09;;;;;;;10.52;9.43;;;23.20;99.90;;;;;;5075521;28;20028;-60
2022/06/25 05:49:35;;;;;;;9.75;8.77;;;23.10;99.90;;;;;;5074768;28;20440;-60
2022/06/25 05:52:00;;;;;;;11.63;9.25;;;22.90;99.90;;;;;;5076254;28;20024;-60
2022/06/25 05:54:26;;;;;;;10.10;7.72;;;22.70;99.90;;;;;;5088856;28;20058;-60
2022/06/25 05:56:52;;;;;;;9.85;8.85;;;22.60;99.90;;;;;;5096010;28;20442;-61
2022/06/25 05:59:17;;;;;;;8.70;7.90;;;22.50;99.90;;;;;;5083892;28;20036;-60
2022/06/25 06:01:43;;;;;;;11.57;8.70;;;22.50;99.90;;;;;;5079037;28;20089;-60
2022/06/25 06:04:08;;;;;;;11.18;9.70;;;22.30;99.90;;;;;;5084357;28;20489;-60
2022/06/25 06:06:34;;;;;;;10.10;9.15;;;22.20;99.90;;;;;;5071154;28;20040;-60
2022/06/25 06:08:59;;;;;;;9.48;8.48;;;22.20;99.90;;;;;;5105146;28;20027;-60
2022/06/25 06:11:25;;;;;;;10.35;9.40;;;22.30;99.90;;;;;;5109924;28;20031;-59
2022/06/25 06:13:50;;;;;;;13.60;7.80;;;22.20;99.90;;;;;;5092703;28;20027;-60
2022/06/25 06:16:16;;;;;;;11.85;8.93;;;22.30;99.90;;;;;;5109327;28;20620;-60
2022/06/25 06:18:41;;;;;;;9.63;8.68;;;22.40;99.90;;;;;;5092615;28;20034;-60
2022/06/25 06:21:07;;;;;;;13.55;9.55;;;22.50;99.90;;;;;;5109525;28;20057;-60
2022/06/25 06:23:32;;;;;;;10.95;9.18;;;22.60;99.90;;;;;;5090880;28;20043;-61
2022/06/25 06:25:58;;;;;;;11.57;9.93;;;22.80;99.90;;;;;;5106509;28;20028;-60
2022/06/25 06:28:23;;;;;;;12.23;9.80;;;22.90;99.90;;;;;;5095914;28;20043;-60
2022/06/25 06:30:49;;;;;;;11.00;8.65;;;23.00;99.90;;;;;;5068879;28;20112;-60
2022/06/25 06:33:14;;;;;;;8.80;8.02;;;23.00;99.90;;;;;;5105971;28;20114;-59
2022/06/25 06:35:40;;;;;;;9.27;7.85;;;23.20;99.90;;;;;;5109515;28;20038;-60
2022/06/25 06:38:05;;;;;;;9.63;7.85;;;23.40;99.90;;;;;;5089277;28;20071;-60
2022/06/25 06:40:31;;;;;;;9.60;8.15;;;23.60;96.50;;;;;;5067753;28;20085;-60
2022/06/25 06:42:56;;;;;;;10.65;8.40;;;23.70;97.50;;;;;;5107794;28;20110;-60
2022/06/25 06:45:22;;;;;;;11.02;8.32;;;23.80;96.60;;;;;;5069758;28;20028;-60
2022/06/25 06:47:48;;;;;;;8.50;7.70;;;24.00;95.20;;;;;;5107783;28;20445;-60
2022/06/25 06:50:14;;;;;;;7.55;6.85;;;24.20;95.10;;;;;;5071120;28;20028;-61
2022/06/25 06:52:40;;;;;;;8.95;8.05;;;24.40;93.70;;;;;;5107940;28;20026;-60
2022/06/25 06:55:06;;;;;;;8.05;6.57;;;24.60;92.30;;;;;;5077779;28;20118;-60
2022/06/25 06:57:32;;;;;;;8.05;7.05;;;25.00;89.70;;;;;;5088696;28;20038;-60
2022/06/25 07:00:01;;;;;;;6.50;5.90;;;25.70;86.60;;;;;;5084443;28;20100;-60
2022/06/25 07:02:27;;;;;;;5.97;5.38;;;26.50;81.80;;;;;;5109119;28;20566;-60
2022/06/25 07:04:53;;;;;;;6.57;5.80;;;27.60;73.40;;;;;;5074127;28;20032;-60
2022/06/25 07:07:19;;;;;;;5.75;5.25;;;28.40;63.40;;;;;;5107506;28;20020;-60
2022/06/25 07:09:44;;;;;;;5.97;5.45;;;28.60;65.60;;;;;;5075268;28;20036;-60
2022/06/25 07:12:10;;;;;;;6.50;5.45;;;28.50;65.10;;;;;;5107555;28;20036;-61
2022/06/25 07:14:36;;;;;;;6.25;5.65;;;28.40;65.00;;;;;;5097957;28;20106;-60
2022/06/25 07:17:01;;;;;;;6.22;5.63;;;28.30;63.10;;;;;;5089036;28;20514;-61
2022/06/25 07:19:27;;;;;;;9.27;6.20;;;28.20;62.80;;;;;;5110294;28;20115;-60
2022/06/25 07:21:54;;;;;;;6.47;5.25;;;28.40;59.20;;;;;;5093486;28;20617;-61
2022/06/25 07:24:20;;;;;;;6.65;5.28;;;28.80;56.80;;;;;;5110238;28;20395;-60
2022/06/25 07:26:46;;;;;;;4.90;4.50;;;29.20;54.80;;;;;;5102594;28;20046;-61
2022/06/25 07:29:11;;;;;;;5.60;5.03;;;29.40;51.90;;;;;;5097795;27;20035;-60
2022/06/25 07:31:37;;;;;;;5.88;5.30;;;29.70;49.10;;;;;;5112965;28;20024;-61
2022/06/25 07:34:02;;;;;;;6.10;5.50;;;29.70;47.60;;;;;;5096585;28;20145;-58
2022/06/25 07:36:28;;;;;;;5.22;4.72;;;29.60;45.80;;;;;;5112637;28;20586;-58
2022/06/25 07:38:54;;;;;;;6.00;4.82;;;29.20;42.20;;;;;;5094750;28;20023;-58
2022/06/25 07:41:20;;;;;;;4.72;4.32;;;28.20;45.20;;;;;;5112475;28;20077;-57
2022/06/25 07:43:45;;;;;;;5.22;4.65;;;27.90;47.80;;;;;;5093844;28;20406;-58
2022/06/25 07:46:11;;;;;;;5.47;4.97;;;27.80;48.10;;;;;;5112566;28;20034;-58
2022/06/25 07:48:37;;;;;;;7.80;5.47;;;27.60;48.20;;;;;;5092089;28;20032;-57
2022/06/25 07:53:47;;;;;;;7.18;5.22;;;27.30;48.40;;;;;;5075301;28;20090;-61
2022/06/25 07:56:13;;;;;;;6.28;5.70;;;27.00;46.20;;;;;;5096916;28;20499;-49
2022/06/25 07:58:38;;;;;;;6.18;5.53;;;27.10;50.80;;;;;;5109527;28;20035;-61
2022/06/25 08:01:04;;;;;;;5.28;4.78;;;27.40;45.20;;;;;;5105479;28;20054;-62
2022/06/25 08:03:30;;;;;;;4.70;4.30;;;28.10;46.30;;;;;;5090400;28;20028;-60
2022/06/25 08:05:57;;;;;;;5.88;5.28;;;29.70;41.10;;;;;;5112471;28;20546;-62
2022/06/25 08:08:22;;;;;;;5.88;5.20;;;31.70;27.90;;;;;;5092247;28;20046;-62
2022/06/25 08:10:48;;;;;;;5.57;4.80;;;32.70;29.60;;;;;;5070881;28;20025;-62
2022/06/25 08:13:14;;;;;;;4.95;4.55;;;32.50;26.50;;;;;;5088746;28;20035;-62
2022/06/25 08:15:39;;;;;;;4.78;4.35;;;32.70;27.90;;;;;;5087973;28;20663;-61
2022/06/25 08:18:05;;;;;;;5.50;4.72;;;33.90;26.20;;;;;;5102778;28;20559;-62
2022/06/25 08:20:30;;;;;;;4.18;3.88;;;35.30;23.40;;;;;;5076961;28;20555;-62
2022/06/25 08:22:56;;;;;;;4.53;4.22;;;36.70;20.70;;;;;;5110359;28;20031;-62
2022/06/25 08:25:21;;;;;;;3.97;3.67;;;36.70;18.10;;;;;;5080465;28;20047;-61
2022/06/25 08:27:52;;;;;;;4.35;4.05;;;36.90;16.20;;;;;;5092983;28;20593;-62
2022/06/25 08:30:21;;;;;;;5.60;4.53;;;36.40;16.60;;;;;;5088547;28;20032;-62
2022/06/25 08:32:47;;;;;;;4.63;4.20;;;35.00;16.30;;;;;;5111381;28;20031;-62
2022/06/25 08:35:13;;;;;;;4.70;4.15;;;34.40;17.90;;;;;;5076507;28;20032;-62
2022/06/25 08:37:42;;;;;;;4.45;3.88;;;34.00;18.60;;;;;;5109958;28;20039;-62
2022/06/25 08:40:08;;;;;;;6.03;4.53;;;33.60;18.90;;;;;;5076150;28;20020;-61
2022/06/25 08:42:34;;;;;;;5.07;4.35;;;33.10;19.40;;;;;;5109926;28;20427;-61
2022/06/25 08:45:00;;;;;;;4.25;3.85;;;32.80;19.90;;;;;;5078445;28;20029;-62
2022/06/25 08:47:25;;;;;;;5.13;4.63;;;32.50;20.10;;;;;;5101917;28;20484;-62
2022/06/25 08:49:52;;;;;;;5.03;4.00;;;32.20;20.30;;;;;;5108765;28;20020;-62
2022/06/25 08:52:18;;;;;;;5.18;4.63;;;31.80;20.70;;;;;;5091182;28;20403;-61
2022/06/25 08:54:45;;;;;;;6.82;4.55;;;31.70;21.10;;;;;;5105478;28;20035;-61
2022/06/25 08:57:10;;;;;;;5.65;4.82;;;31.60;21.50;;;;;;5110668;28;20043;-63
2022/06/25 08:59:37;;;;;;;5.03;4.53;;;31.60;21.80;;;;;;5089570;28;20536;-62
2022/06/25 09:02:03;;;;;;;4.97;4.40;;;31.60;21.50;;;;;;5090893;28;20068;-62
2022/06/25 09:04:28;;;;;;;5.00;4.50;;;31.50;21.70;;;;;;5108345;28;20491;-62
2022/06/25 09:07:11;;;;;;;4.97;4.30;;;31.50;21.80;;;;;;5111252;28;20024;-62
2022/06/25 09:09:36;;;;;;;5.72;5.22;;;31.50;21.90;;;;;;5090453;28;20028;-63
2022/06/25 09:12:05;;;;;;;5.30;4.80;;;31.40;21.90;;;;;;5095936;28;20039;-62
2022/06/25 09:14:32;;;;;;;6.05;4.45;;;31.60;22.10;;;;;;5108162;28;20085;-63
2022/06/25 09:17:04;;;;;;;5.03;4.25;;;31.60;22.00;;;;;;5111086;28;20035;-62
2022/06/25 09:19:40;;;;;;;5.25;4.75;;;31.70;22.00;;;;;;5080987;28;20040;-63
2022/06/25 09:22:14;;;;;;;5.07;4.57;;;31.80;21.50;;;;;;5092214;28;20054;-63
2022/06/25 09:24:49;;;;;;;4.72;4.30;;;31.90;21.20;;;;;;5083349;28;20100;-62
2022/06/25 09:27:33;;;;;;;4.82;4.13;;;32.10;20.80;;;;;;5097008;28;20024;-61
2022/06/25 09:30:16;;;;;;;5.18;4.68;;;32.40;19.70;;;;;;5068425;28;20507;-62
2022/06/25 09:32:51;;;;;;;4.80;3.85;;;32.60;19.80;;;;;;5049977;28;20065;-63
2022/06/25 09:35:37;;;;;;;4.60;3.95;;;32.90;19.90;;;;;;5048306;28;20485;-62
2022/06/25 09:38:10;;;;;;;4.32;3.92;;;33.00;17.50;;;;;;5049616;28;20036;-62
2022/06/25 09:40:38;;;;;;;4.88;4.47;;;33.20;19.10;;;;;;5057361;28;20171;-62
2022/06/25 09:43:14;;;;;;;5.30;4.32;;;33.20;18.50;;;;;;5089205;28;20501;-62
2022/06/25 09:45:43;;;;;;;5.15;4.65;;;33.10;16.60;;;;;;5068223;28;20118;-63
2022/06/25 09:48:16;;;;;;;4.60;4.20;;;33.10;18.40;;;;;;5089798;28;20040;-63
2022/06/25 09:50:42;;;;;;;5.43;4.10;;;33.10;18.70;;;;;;5047976;28;20056;-62
2022/06/25 09:53:07;;;;;;;5.05;4.65;;;33.20;18.30;;;;;;5088298;28;20080;-63
2022/06/25 09:55:37;;;;;;;6.20;4.45;;;33.20;16.10;;;;;;5062530;28;20036;-63
2022/06/25 09:58:03;;;;;;;3.97;3.65;;;32.80;16.80;;;;;;5069335;28;20028;-62
2022/06/25 10:00:30;;;;;;;5.32;3.90;;;32.90;16.60;;;;;;5078769;28;20742;-63
2022/06/25 10:02:57;;;;;;;5.10;4.63;;;32.80;15.60;;;;;;5069517;28;20090;-62
2022/06/25 10:05:43;;;;;;;4.70;4.10;;;32.10;15.80;;;;;;5062489;28;20603;-62
2022/06/25 10:08:11;;;;;;;6.28;4.72;;;32.00;15.70;;;;;;5048919;28;20045;-62
2022/06/25 10:10:40;;;;;;;5.28;4.78;;;31.80;17.60;;;;;;5081688;28;20036;-62
2022/06/25 10:13:06;;;;;;;6.32;4.70;;;31.30;18.70;;;;;;5089412;28;20054;-63
2022/06/25 10:15:32;;;;;;;5.35;4.95;;;31.10;19.20;;;;;;5055418;28;20087;-62
2022/06/25 10:18:04;;;;;;;5.30;4.80;;;31.20;19.10;;;;;;5074168;28;20029;-63
2022/06/25 10:20:31;;;;;;;4.85;4.45;;;31.50;18.40;;;;;;5049214;28;20040;-62
2022/06/25 10:22:59;;;;;;;4.75;4.35;;;31.70;18.10;;;;;;5085800;28;20388;-63
2022/06/25 10:25:26;;;;;;;7.72;5.07;;;31.90;17.60;;;;;;5063191;28;20033;-62
2022/06/25 10:28:25;;;;;;;5.93;5.20;;;32.20;16.70;;;;;;5077968;28;20040;-62
2022/06/25 10:30:54;;;;;;;6.75;5.05;;;31.80;16.50;;;;;;5059474;28;20617;-62
2022/06/25 10:33:21;;;;;;;6.43;5.15;;;31.40;18.00;;;;;;5108932;28;20027;-62
2022/06/25 10:35:48;;;;;;;5.70;4.90;;;31.50;18.20;;;;;;5072434;28;20032;-62
2022/06/25 10:38:16;;;;;;;4.75;4.22;;;31.80;17.60;;;;;;5108083;28;20032;-62
2022/06/25 10:42:58;;;;;;;5.90;4.53;;;31.90;17.20;;;;;;5073548;28;20074;-62
2022/06/25 10:43:53;;;;;;;4.90;4.50;;;32.10;17.60;;;;;;5079012;28;20050;-62
2022/06/25 10:46:19;;;;;;;6.22;4.63;;;32.20;16.80;;;;;;5085689;28;20128;-62
2022/06/25 10:49:12;;;;;;;6.05;4.88;;;32.10;15.90;;;;;;5074770;28;20039;-62
2022/06/25 10:51:47;;;;;;;5.47;5.07;;;31.40;15.50;;;;;;5066878;28;20115;-62
2022/06/25 10:54:23;;;;;;;6.73;4.63;;;31.10;17.10;;;;;;5072387;28;20024;-63
2022/06/25 10:56:50;;;;;;;4.55;3.88;;;31.10;17.20;;;;;;5074617;28;20679;-62
2022/06/25 10:59:34;;;;;;;4.75;4.10;;;31.30;16.70;;;;;;5087634;28;20048;-61
2022/06/25 11:02:02;;;;;;;5.18;4.30;;;31.40;15.90;;;;;;5069380;28;20545;-62
2022/06/25 11:04:28;;;;;;;4.85;4.35;;;31.40;15.90;;;;;;5084674;28;20443;-61
2022/06/25 11:07:07;;;;;;;5.75;4.47;;;31.40;15.40;;;;;;5068347;28;20059;-62
2022/06/25 11:09:33;;;;;;;5.22;4.22;;;31.60;16.20;;;;;;5070377;28;20032;-62
2022/06/25 11:11:59;;;;;;;5.85;4.90;;;31.70;15.80;;;;;;5066102;28;20051;-62
2022/06/25 11:14:25;;;;;;;4.63;4.22;;;31.70;15.70;;;;;;5077439;28;20093;-62
2022/06/25 11:16:52;;;;;;;6.97;5.10;;;31.80;15.30;;;;;;5072755;28;20017;-62
2022/06/25 11:19:19;;;;;;;5.05;4.28;;;31.80;15.20;;;;;;5078583;28;20043;-61
2022/06/25 11:21:46;;;;;;;6.20;5.60;;;31.90;15.30;;;;;;5072002;28;20020;-62
2022/06/25 11:24:26;;;;;;;5.30;4.80;;;31.80;14.50;;;;;;5077475;28;20032;-61
2022/06/25 11:29:49;;;;;;;6.05;5.55;;;31.50;14.60;;;;;;5071308;28;20705;-62
2022/06/25 11:32:26;;;;;;;5.18;4.78;;;30.70;16.20;;;;;;5080328;28;20025;-61
2022/06/25 11:34:53;;;;;;;5.45;4.78;;;30.80;16.90;;;;;;5088077;28;20078;-62
2022/06/25 11:37:20;;;;;;;5.25;4.85;;;30.80;16.30;;;;;;5076611;28;20025;-61
2022/06/25 11:39:47;;;;;;;4.88;4.35;;;30.80;16.20;;;;;;5096371;28;20020;-62
2022/06/25 11:42:14;;;;;;;5.10;4.70;;;31.10;16.00;;;;;;5079555;28;20082;-62
2022/06/25 11:44:44;;;;;;;4.38;3.90;;;31.30;15.70;;;;;;5088527;28;20107;-62
2022/06/25 11:47:22;;;;;;;4.50;4.10;;;31.60;15.20;;;;;;5073435;28;20027;-62
2022/06/25 11:49:49;;;;;;;5.18;4.68;;;31.80;14.70;;;;;;5083061;28;20027;-62
2022/06/25 11:52:16;;;;;;;4.72;4.28;;;31.80;14.50;;;;;;5071323;28;20021;-60
2022/06/25 11:54:43;;;;;;;5.05;4.55;;;31.90;14.40;;;;;;5089268;28;20024;-62
2022/06/25 11:57:16;;;;;;;5.05;4.57;;;31.90;14.60;;;;;;5070966;28;20029;-62
2022/06/25 11:59:41;;;;;;;5.47;4.32;;;31.90;13.20;;;;;;5063120;28;20028;-62
2022/06/25 12:02:08;;;;;;;6.65;4.97;;;31.70;13.80;;;;;;5064382;28;20028;-62
2022/06/25 12:04:51;;;;;;;4.90;4.50;;;31.50;13.70;;;;;;5080363;28;20036;-62
2022/06/25 12:07:27;;;;;;;6.35;5.55;;;31.50;14.10;;;;;;5074653;28;20040;-62
2022/06/25 12:09:54;;;;;;;;;;;31.40;14.50;;;;;;5072851;28;20024;-62
2022/06/25 12:12:21;;;;;;;5.30;4.78;;;31.00;14.10;;;;;;5069152;28;19913;-61
2022/06/25 12:14:48;;;;;;;5.18;4.55;;;30.80;15.40;;;;;;5077620;28;20024;-61
2022/06/25 12:17:14;;;;;;;6.28;5.68;;;30.80;15.60;;;;;;5069851;28;20464;-62
2022/06/25 12:20:07;;;;;;;6.18;5.47;;;30.40;16.90;;;;;;5075854;28;20059;-61
2022/06/25 12:22:35;;;;;;;8.38;5.32;;;30.00;18.20;;;;;;5067461;28;20032;-62
2022/06/25 12:25:00;;;;;;;8.23;5.60;;;29.90;18.30;;;;;;5085414;28;20024;-61
2022/06/25 12:27:28;;;;;;;5.60;5.10;;;29.70;18.20;;;;;;5078675;28;20480;-61
2022/06/25 12:29:56;;;;;;;5.90;4.38;;;29.60;18.70;;;;;;5078227;28;20527;-61
2022/06/25 12:32:39;;;;;;;6.50;4.85;;;29.60;18.60;;;;;;5084102;28;20153;-61
2022/06/25 12:35:22;;;;;;;6.05;4.50;;;29.70;18.90;;;;;;5097835;28;20062;-61
2022/06/25 12:38:12;;;;;;;5.38;4.88;;;29.70;18.00;;;;;;5068810;28;20028;-62
2022/06/25 12:40:50;;;;;;;5.10;4.60;;;29.70;18.70;;;;;;5080709;28;20020;-62
2022/06/25 12:43:16;;;;;;;5.22;4.72;;;29.70;18.30;;;;;;5074512;28;20032;-60
2022/06/25 12:45:44;;;;;;;5.93;5.32;;;29.50;17.80;;;;;;5084902;28;20396;-62
2022/06/25 12:48:10;;;;;;;5.32;4.68;;;29.60;17.90;;;;;;5083942;28;20111;-62
2022/06/25 12:50:37;;;;;;;4.82;4.05;;;29.50;17.80;;;;;;5082780;28;20322;-62
2022/06/25 12:53:11;;;;;;;4.63;4.22;;;29.50;17.90;;;;;;5085867;28;20036;-62